Time;durP1;ratioP1;P1;durP2;ratioP2;P2;SDS_P1;SDS_P2;PMS_P1;PMS_P2;Temp;Humidity;BMP_temperature;BMP_pressure;BME280_temperature;BME280_humidity;BME280_pressure;Samples;Min_cycle;Max_cycle;Signal;HPM_P1;HPM_P2
2021/07/14 00:01:49;;;;;;;15.60;14.20;;;;;;;25.27;64.45;100652.41;6152842;23;20017;-81
2021/07/14 00:04:15;;;;;;;14.60;13.30;;;;;;;25.27;64.26;100652.41;6152682;23;20453;-81
2021/07/14 00:06:40;;;;;;;15.13;13.57;;;;;;;25.29;64.25;100657.69;6150857;23;20342;-80
2021/07/14 00:09:07;;;;;;;16.00;14.32;;;;;;;25.30;64.14;100659.34;6152852;23;20009;-81
2021/07/14 00:11:38;;;;;;;16.50;14.77;;;;;;;25.27;64.32;100654.31;6152724;23;20013;-81
2021/07/14 00:22:23;;;;;;;14.02;12.88;;;;;;;25.19;63.96;100667.34;6154566;23;20064;-81
2021/07/14 00:24:48;;;;;;;14.82;13.50;;;;;;;25.21;63.96;100669.84;6154276;23;20005;-80
2021/07/14 00:27:13;;;;;;;14.57;13.15;;;;;;;25.16;64.11;100667.81;6152293;23;20065;-81
2021/07/14 00:32:34;;;;;;;13.05;11.85;;;;;;;25.13;63.89;100671.03;6140853;23;20496;-81
2021/07/14 00:34:59;;;;;;;13.95;11.80;;;;;;;25.08;64.02;100665.34;6153986;23;20013;-81
2021/07/14 00:37:25;;;;;;;14.25;11.65;;;;;;;25.12;63.71;100666.56;6154324;23;20012;-81
2021/07/14 00:39:56;;;;;;;13.38;11.85;;;;;;;25.09;63.79;100667.03;6152398;23;20006;-81
2021/07/14 00:42:26;;;;;;;12.00;10.80;;;;;;;25.11;63.73;100664.88;6154398;23;20028;-81
2021/07/14 00:44:54;;;;;;;12.55;11.27;;;;;;;25.12;63.55;100668.47;6154300;23;20005;-80
2021/07/14 00:47:26;;;;;;;12.38;11.38;;;;;;;25.08;63.79;100668.09;6154391;23;20020;-80
2021/07/14 00:49:53;;;;;;;12.32;11.10;;;;;;;25.12;63.66;100676.72;6154445;23;20012;-80
2021/07/14 00:52:18;;;;;;;12.27;11.18;;;;;;;25.05;63.88;100674.06;6153878;23;20010;-81
2021/07/14 00:54:45;;;;;;;12.63;11.52;;;;;;;25.03;63.98;100667.13;6153824;23;20020;-80
2021/07/14 00:57:12;;;;;;;12.93;11.63;;;;;;;25.03;63.96;100662.44;6153846;23;20030;-81
2021/07/14 00:59:37;;;;;;;13.80;12.25;;;;;;;25.04;63.76;100658.66;6154172;23;20001;-81
2021/07/14 01:02:03;;;;;;;11.88;10.77;;;;;;;25.00;63.82;100665.66;6154238;23;20002;-80
2021/07/14 01:04:31;;;;;;;11.70;10.55;;;;;;;25.03;63.77;100670.72;6153545;23;20025;-80
2021/07/14 01:07:05;;;;;;;12.07;10.38;;;;;;;25.03;63.84;100659.69;6154028;23;20076;-80
2021/07/14 01:09:45;;;;;;;11.65;10.45;;;;;;;25.03;63.77;100656.13;6153900;23;20016;-80
2021/07/14 01:12:39;;;;;;;11.23;10.05;;;;;;;24.97;63.92;100655.97;6153705;23;20009;-81
2021/07/14 01:15:10;;;;;;;12.77;11.48;;;;;;;24.84;64.33;100664.41;6153556;23;20024;-81
2021/07/14 01:17:44;;;;;;;;;;;;;;;24.80;64.47;100652.19;6154614;23;20013;-80
2021/07/14 01:20:25;;;;;;;11.15;10.15;;;;;;;24.85;64.24;100646.00;6152189;23;19912;-81
2021/07/14 01:23:05;;;;;;;12.20;10.98;;;;;;;24.84;64.35;100647.06;6154270;23;20005;-81
2021/07/14 01:25:52;;;;;;;12.80;11.65;;;;;;;24.76;64.38;100643.59;6153939;23;20025;-80
2021/07/14 01:28:24;;;;;;;13.00;11.80;;;;;;;24.66;64.49;100643.28;6154001;23;20009;-81
2021/07/14 01:30:51;;;;;;;13.30;12.02;;;;;;;24.65;64.73;100641.59;6153388;23;20405;-80
2021/07/14 01:33:20;;;;;;;12.40;11.18;;;;;;;24.61;64.71;100643.16;6153772;23;20010;-81
2021/07/14 01:35:48;;;;;;;14.48;13.15;;;;;;;24.58;64.73;100635.34;6154171;23;20434;-81
2021/07/14 01:38:18;;;;;;;12.90;11.70;;;;;;;24.61;64.63;100642.28;6153537;23;20134;-81
2021/07/14 01:40:46;;;;;;;12.60;11.40;;;;;;;24.63;64.47;100634.66;6154031;23;20337;-81
2021/07/14 01:43:13;;;;;;;14.55;13.20;;;;;;;24.60;64.72;100633.19;6151694;23;20346;-80
2021/07/14 01:45:40;;;;;;;15.85;13.02;;;;;;;24.58;64.80;100629.84;6151430;23;20001;-80
2021/07/14 01:48:10;;;;;;;13.43;10.93;;;;;;;24.57;65.32;100630.91;6151885;23;20521;-80
2021/07/14 01:50:36;;;;;;;16.55;13.65;;;;;;;24.55;65.63;100624.81;6153684;23;20032;-81
2021/07/14 01:53:02;;;;;;;13.05;11.50;;;;;;;24.62;65.67;100622.81;6154091;23;20013;-81
2021/07/14 01:55:30;;;;;;;15.25;13.73;;;;;;;24.59;65.77;100625.19;6153263;23;20009;-81
2021/07/14 01:57:57;;;;;;;15.43;13.02;;;;;;;24.48;66.47;100621.28;6153853;23;20028;-81
2021/07/14 02:00:23;;;;;;;15.23;13.63;;;;;;;24.47;66.32;100614.97;6151674;23;20017;-81
2021/07/14 02:03:05;;;;;;;16.65;14.20;;;;;;;24.48;66.27;100618.53;6151553;23;20009;-80
2021/07/14 02:05:38;;;;;;;17.45;15.73;;;;;;;24.43;66.92;100623.91;6153466;23;20073;-81
2021/07/14 02:08:04;;;;;;;22.35;15.90;;;;;;;24.43;67.00;100624.75;6153361;23;20013;-81
2021/07/14 02:10:31;;;;;;;19.02;15.80;;;;;;;24.42;67.03;100613.97;6151509;23;20630;-80
2021/07/14 02:12:59;;;;;;;18.15;15.35;;;;;;;24.41;67.13;100621.34;6153580;23;20036;-81
2021/07/14 02:15:26;;;;;;;20.95;16.73;;;;;;;24.42;67.37;100619.47;6151548;23;20009;-80
2021/07/14 02:17:55;;;;;;;20.20;16.67;;;;;;;24.38;67.11;100609.97;6153281;23;20009;-81
2021/07/14 02:20:21;;;;;;;21.92;17.33;;;;;;;24.38;67.40;100609.97;6153465;23;20016;-81
2021/07/14 02:22:47;;;;;;;20.20;17.13;;;;;;;24.34;67.53;100608.78;6153152;23;20040;-81
2021/07/14 02:25:13;;;;;;;22.08;16.35;;;;;;;24.36;67.22;100609.34;6153098;23;20390;-80
2021/07/14 02:27:39;;;;;;;23.70;16.60;;;;;;;24.33;67.60;100607.06;6153450;23;20005;-81
2021/07/14 02:30:18;;;;;;;19.55;17.52;;;;;;;24.28;67.64;100605.03;6151076;23;20048;-80
2021/07/14 02:32:46;;;;;;;20.13;16.95;;;;;;;24.24;67.88;100609.28;6150913;23;20010;-80
2021/07/14 02:35:13;;;;;;;19.92;15.77;;;;;;;24.27;67.55;100612.44;6153076;23;20009;-80
2021/07/14 02:38:00;;;;;;;19.50;17.45;;;;;;;24.19;67.83;100609.97;6153465;23;20040;-80
2021/07/14 02:40:32;;;;;;;26.00;17.27;;;;;;;24.23;67.37;100605.69;6152977;23;20346;-80
2021/07/14 02:43:00;;;;;;;25.52;16.45;;;;;;;24.18;67.59;100601.94;6153080;23;20012;-81
2021/07/14 02:45:28;;;;;;;21.42;17.60;;;;;;;24.19;67.77;100598.16;6153060;23;20431;-81
2021/07/14 02:47:56;;;;;;;20.00;17.77;;;;;;;24.16;67.66;100602.19;6152554;23;20434;-81
2021/07/14 02:50:23;;;;;;;18.90;16.95;;;;;;;24.12;67.94;100603.72;6153331;23;20005;-81
2021/07/14 02:52:53;;;;;;;17.95;16.00;;;;;;;24.11;67.71;100602.03;6151656;23;20032;-80
2021/07/14 02:55:22;;;;;;;22.33;18.42;;;;;;;24.10;67.82;100608.59;6153257;23;20013;-81
2021/07/14 02:57:53;;;;;;;20.00;16.27;;;;;;;24.10;67.63;100605.03;6151602;23;20039;-80
2021/07/14 03:00:20;;;;;;;23.80;16.45;;;;;;;24.08;67.81;100614.31;6153102;23;20016;-80
2021/07/14 03:02:47;;;;;;;21.92;16.92;;;;;;;24.07;67.65;100612.66;6153034;23;20009;-80
2021/07/14 03:05:13;;;;;;;19.02;16.73;;;;;;;24.11;67.66;100606.69;6151298;23;20017;-81
2021/07/14 03:07:41;;;;;;;19.40;17.08;;;;;;;24.08;67.80;100607.97;6153019;23;20102;-80
2021/07/14 03:10:07;;;;;;;21.88;16.15;;;;;;;24.12;67.66;100600.13;6150599;23;20020;-80
2021/07/14 03:12:33;;;;;;;22.58;17.52;;;;;;;24.08;67.88;100597.00;6152775;23;20010;-81
2021/07/14 03:15:03;;;;;;;24.05;16.80;;;;;;;24.03;68.21;100603.19;6150934;23;20013;-81
2021/07/14 03:17:31;;;;;;;18.00;16.38;;;;;;;24.01;68.15;100608.06;6152912;23;20430;-80
2021/07/14 03:19:59;;;;;;;19.30;17.20;;;;;;;24.01;68.14;100612.72;6153158;23;20080;-80
2021/07/14 03:22:25;;;;;;;26.00;19.42;;;;;;;23.98;68.29;100614.00;6153222;23;20021;-80
2021/07/14 03:24:53;;;;;;;23.05;17.40;;;;;;;24.01;67.99;100615.47;6152689;23;20009;-80
2021/07/14 03:27:18;;;;;;;21.30;17.25;;;;;;;23.99;68.10;100606.59;6152979;23;20051;-81
2021/07/14 03:29:46;;;;;;;30.40;17.80;;;;;;;23.95;68.21;100606.22;6152358;23;20002;-80
2021/07/14 03:32:12;;;;;;;26.35;19.38;;;;;;;23.98;68.18;100607.69;6152509;23;20009;-81
2021/07/14 03:34:37;;;;;;;22.98;17.45;;;;;;;23.99;68.10;100601.09;6152748;23;20084;-81
2021/07/14 03:37:06;;;;;;;21.05;17.35;;;;;;;23.97;68.26;100604.09;6153290;23;20005;-80
2021/07/14 03:39:38;;;;;;;20.20;17.63;;;;;;;23.97;68.20;100611.50;6150351;23;20019;-80
2021/07/14 03:42:05;;;;;;;31.25;17.20;;;;;;;23.97;68.33;100615.09;6151253;23;20005;-80
2021/07/14 03:44:33;;;;;;;31.38;18.52;;;;;;;23.94;68.43;100612.78;6152338;23;20084;-80
2021/07/14 03:46:59;;;;;;;26.13;18.52;;;;;;;23.97;68.16;100611.50;6152669;23;20012;-81
2021/07/14 03:49:26;;;;;;;27.48;18.42;;;;;;;23.98;68.18;100613.19;6152965;23;20009;-80
2021/07/14 03:51:52;;;;;;;26.65;19.40;;;;;;;23.99;67.99;100612.94;6152498;23;20006;-80
2021/07/14 03:54:18;;;;;;;29.58;19.52;;;;;;;24.02;68.06;100617.97;6152724;23;20046;-80
2021/07/14 03:56:44;;;;;;;28.15;20.10;;;;;;;23.96;68.11;100621.63;6154378;23;20009;-80
2021/07/14 03:59:10;;;;;;;23.58;18.40;;;;;;;23.95;68.10;100622.69;6154245;23;20097;-80
2021/07/14 04:01:35;;;;;;;22.40;18.58;;;;;;;23.96;68.32;100613.38;6154575;23;20005;-81
2021/07/14 04:04:02;;;;;;;25.17;19.73;;;;;;;23.97;68.60;100623.31;6154855;23;20049;-81
2021/07/14 04:06:34;;;;;;;30.33;21.20;;;;;;;23.98;68.43;100624.16;6154614;23;20025;-81
2021/07/14 04:09:26;;;;;;;23.35;19.15;;;;;;;23.97;68.55;100623.31;6153560;23;20009;-80
2021/07/14 04:11:56;;;;;;;23.65;20.25;;;;;;;23.98;68.37;100625.00;6086595;23;20100;-81
2021/07/14 04:14:22;;;;;;;26.48;19.77;;;;;;;23.99;68.44;100634.91;6148360;23;20009;-81
2021/07/14 04:16:47;;;;;;;24.00;18.80;;;;;;;23.97;68.52;100622.50;6149362;23;20005;-81
2021/07/14 04:19:13;;;;;;;24.13;19.58;;;;;;;23.97;68.65;100612.34;6150900;23;20020;-81
2021/07/14 04:21:39;;;;;;;27.63;19.45;;;;;;;24.01;68.47;100615.47;6156845;23;20033;-81
2021/07/14 04:24:05;;;;;;;29.40;19.08;;;;;;;24.07;68.46;100609.06;6155750;23;20021;-81
2021/07/14 04:26:31;;;;;;;32.60;20.00;;;;;;;24.06;68.43;100615.63;6151749;23;20069;-81
2021/07/14 04:28:56;;;;;;;25.17;20.92;;;;;;;24.02;68.50;100606.16;6152875;23;20084;-81
2021/07/14 04:31:22;;;;;;;23.55;19.75;;;;;;;24.06;68.33;100608.22;6150414;23;20016;-81
2021/07/14 04:33:47;;;;;;;23.77;19.20;;;;;;;24.06;68.54;100612.88;6152074;23;20018;-81
2021/07/14 04:36:12;;;;;;;31.67;19.50;;;;;;;24.05;68.58;100606.53;6151969;23;20016;-81
2021/07/14 04:38:38;;;;;;;25.55;20.42;;;;;;;24.05;68.79;100606.53;6151442;23;20009;-81
2021/07/14 04:41:04;;;;;;;29.85;20.27;;;;;;;24.08;69.15;100605.22;6149589;23;20442;-81
2021/07/14 04:43:30;;;;;;;30.95;22.98;;;;;;;24.11;69.00;100599.28;6151785;23;20458;-81
2021/07/14 04:45:55;;;;;;;27.80;21.60;;;;;;;24.06;69.51;100601.91;6153330;23;20430;-81
2021/07/14 04:48:22;;;;;;;27.13;21.02;;;;;;;24.14;69.13;100614.47;6143260;23;20520;-81
2021/07/14 04:50:48;;;;;;;24.02;19.00;;;;;;;24.23;68.58;100608.44;6126351;23;20005;-80
2021/07/14 04:53:13;;;;;;;29.70;20.77;;;;;;;24.22;68.77;100601.28;6147333;23;20366;-81
2021/07/14 04:55:41;;;;;;;35.92;21.30;;;;;;;24.27;68.37;100608.81;6153014;23;20013;-82
2021/07/14 04:58:06;;;;;;;27.67;21.05;;;;;;;24.26;68.34;100609.91;6152259;23;20671;-81
2021/07/14 05:00:31;;;;;;;31.48;19.95;;;;;;;24.30;67.95;100614.72;6153735;23;20032;-81
2021/07/14 05:02:57;;;;;;;23.65;19.55;;;;;;;24.25;67.92;100614.56;6153155;23;20009;-81
2021/07/14 05:05:22;;;;;;;24.73;19.35;;;;;;;24.24;67.78;100617.53;6149847;23;20097;-81
2021/07/14 05:07:49;;;;;;;23.48;19.63;;;;;;;24.28;67.63;100622.34;6150105;23;20016;-81
2021/07/14 05:10:15;;;;;;;26.60;18.77;;;;;;;24.29;67.54;100618.53;6150258;23;20016;-81
2021/07/14 05:12:41;;;;;;;19.40;17.25;;;;;;;24.27;67.57;100625.31;6148180;23;20013;-81
2021/07/14 05:15:07;;;;;;;30.45;18.90;;;;;;;24.34;67.36;100630.75;6148623;23;20337;-81
2021/07/14 05:17:32;;;;;;;22.73;18.48;;;;;;;24.35;67.37;100626.94;6151800;23;20010;-81
2021/07/14 05:19:58;;;;;;;33.55;20.00;;;;;;;24.31;67.49;100635.63;6151207;23;20036;-81
2021/07/14 05:22:24;;;;;;;22.30;18.05;;;;;;;24.33;67.64;100638.13;6151018;23;20486;-81
2021/07/14 05:24:49;;;;;;;20.60;17.67;;;;;;;24.42;67.26;100639.53;6150629;23;20021;-81
2021/07/14 05:27:14;;;;;;;19.23;17.20;;;;;;;24.52;66.94;100641.78;6150945;23;20020;-81
2021/07/14 05:29:40;;;;;;;19.63;16.73;;;;;;;24.60;66.34;100638.69;6150287;23;20092;-81
2021/07/14 05:32:06;;;;;;;21.20;18.48;;;;;;;24.68;66.06;100646.63;6150425;23;20014;-81
2021/07/14 05:34:32;;;;;;;23.30;19.70;;;;;;;24.76;65.55;100649.09;6152377;23;20071;-81
2021/07/14 05:36:57;;;;;;;23.17;16.63;;;;;;;24.81;65.14;100664.03;6151580;23;20009;-81
2021/07/14 05:39:22;;;;;;;21.50;17.50;;;;;;;24.85;65.02;100649.56;6150172;23;20084;-81
2021/07/14 05:41:48;;;;;;;25.83;17.73;;;;;;;24.83;65.35;100649.00;6150463;23;20334;-82
2021/07/14 05:44:14;;;;;;;19.58;15.68;;;;;;;24.82;65.29;100649.19;6147349;23;20125;-81
2021/07/14 05:46:40;;;;;;;17.95;15.35;;;;;;;24.80;65.46;100654.94;6149408;23;20056;-81
2021/07/14 05:49:07;;;;;;;19.45;15.82;;;;;;;24.72;65.36;100642.34;6151196;23;20056;-82
2021/07/14 05:51:33;;;;;;;22.30;15.05;;;;;;;24.75;65.24;100647.38;6151228;23;20040;-80
2021/07/14 05:54:02;;;;;;;24.00;16.70;;;;;;;24.79;65.13;100657.91;6151521;23;20006;-81
2021/07/14 05:56:28;;;;;;;19.35;14.80;;;;;;;24.80;65.34;100667.88;6149807;23;20009;-81
2021/07/14 05:58:53;;;;;;;22.42;14.98;;;;;;;24.73;65.49;100663.28;6150165;23;20032;-81
2021/07/14 06:01:19;;;;;;;22.08;14.48;;;;;;;24.80;65.47;100651.38;6149594;23;20016;-81
2021/07/14 06:03:47;;;;;;;17.58;13.50;;;;;;;24.84;65.35;100658.06;6147950;23;20162;-81
2021/07/14 06:06:12;;;;;;;15.18;13.60;;;;;;;24.93;65.08;100659.44;6149348;23;20077;-81
2021/07/14 06:08:38;;;;;;;16.45;13.32;;;;;;;24.95;64.93;100671.88;6150819;23;20059;-82
2021/07/14 06:11:03;;;;;;;21.33;14.23;;;;;;;25.06;63.77;100666.66;6151653;23;20820;-81
2021/07/14 06:13:28;;;;;;;14.82;12.60;;;;;;;25.14;63.88;100669.97;6151137;23;20060;-81
2021/07/14 06:15:53;;;;;;;16.92;13.48;;;;;;;25.08;63.22;100670.84;6148808;23;20080;-81
2021/07/14 06:18:19;;;;;;;18.00;13.20;;;;;;;25.11;63.11;100670.41;6147844;23;20112;-81
2021/07/14 06:20:44;;;;;;;14.05;12.75;;;;;;;25.10;63.26;100665.97;6148635;23;20023;-82
2021/07/14 06:23:09;;;;;;;13.88;12.43;;;;;;;25.10;63.30;100663.22;6150733;23;20033;-81
2021/07/14 06:25:35;;;;;;;16.38;12.88;;;;;;;25.07;63.46;100668.31;6151629;23;20005;-81
2021/07/14 06:28:02;;;;;;;15.65;11.73;;;;;;;25.15;63.06;100666.13;6150251;23;20447;-82
2021/07/14 06:30:28;;;;;;;15.77;11.20;;;;;;;25.20;63.14;100659.94;6148057;23;20730;-82
2021/07/14 06:32:53;;;;;;;17.30;12.38;;;;;;;25.21;62.66;100665.19;6149401;23;20005;-82
2021/07/14 06:35:21;;;;;;;12.15;10.73;;;;;;;25.34;62.62;100660.56;6149860;23;20013;-82
2021/07/14 06:37:47;;;;;;;19.42;11.82;;;;;;;25.35;62.21;100665.00;6150511;23;20012;-82
2021/07/14 06:40:13;;;;;;;14.85;10.63;;;;;;;25.40;62.38;100659.63;6148044;23;20011;-82
2021/07/14 06:42:39;;;;;;;12.52;11.32;;;;;;;25.44;62.56;100663.59;6150353;23;20005;-81
2021/07/14 06:45:09;;;;;;;14.98;11.32;;;;;;;25.48;62.45;100656.53;6149309;23;20023;-81
2021/07/14 06:47:35;;;;;;;12.20;10.90;;;;;;;25.48;62.49;100663.94;6148447;23;20002;-82
2021/07/14 06:50:02;;;;;;;14.23;10.95;;;;;;;25.51;62.42;100656.06;6146829;23;20389;-81
2021/07/14 06:52:28;;;;;;;14.32;11.38;;;;;;;25.55;61.81;100659.16;6148637;23;20005;-81
2021/07/14 06:54:53;;;;;;;11.27;10.18;;;;;;;25.67;61.77;100644.34;6146547;23;20005;-81
2021/07/14 06:57:18;;;;;;;12.20;10.50;;;;;;;25.70;62.20;100647.69;6149869;23;20566;-81
2021/07/14 06:59:44;;;;;;;13.88;11.20;;;;;;;25.67;62.08;100649.84;6149926;23;20346;-81
2021/07/14 07:02:09;;;;;;;13.63;10.57;;;;;;;25.69;61.80;100652.38;6149298;23;20089;-81
2021/07/14 07:04:35;;;;;;;12.52;11.13;;;;;;;25.69;62.23;100649.63;6148372;23;20048;-81
2021/07/14 07:07:00;;;;;;;12.07;10.82;;;;;;;25.66;62.65;100656.44;6146826;23;20028;-81
2021/07/14 07:09:26;;;;;;;15.75;9.80;;;;;;;25.77;61.96;100660.25;6148279;23;20009;-81
2021/07/14 07:11:52;;;;;;;12.05;10.88;;;;;;;25.76;62.03;100658.59;6148932;23;20056;-82
2021/07/14 07:14:18;;;;;;;11.18;9.88;;;;;;;25.78;61.74;100659.22;6148841;23;20005;-81
2021/07/14 07:16:43;;;;;;;15.18;10.77;;;;;;;25.82;62.23;100663.19;6149640;23;20005;-81
2021/07/14 07:19:09;;;;;;;11.35;9.70;;;;;;;25.88;61.91;100658.66;6150039;23;20452;-81
2021/07/14 07:21:34;;;;;;;11.07;9.88;;;;;;;25.93;61.72;100653.25;6147263;23;20001;-81
2021/07/14 07:24:00;;;;;;;12.60;10.88;;;;;;;25.96;61.29;100662.94;6146602;23;20493;-81
2021/07/14 07:26:26;;;;;;;17.75;11.10;;;;;;;25.93;61.75;100649.63;6148379;23;20024;-81
2021/07/14 07:28:58;;;;;;;13.13;10.40;;;;;;;25.94;61.20;100648.59;6147767;23;20012;-81
2021/07/14 07:31:24;;;;;;;17.25;10.80;;;;;;;25.95;61.29;100655.75;6148232;23;20378;-81
2021/07/14 07:33:50;;;;;;;11.13;9.50;;;;;;;26.02;61.48;100653.72;6147646;23;20013;-82
2021/07/14 07:36:16;;;;;;;13.02;10.82;;;;;;;26.16;61.32;100652.41;6148898;23;20514;-81
2021/07/14 07:38:41;;;;;;;13.38;10.20;;;;;;;26.34;60.48;100663.28;6148478;23;20016;-81
2021/07/14 07:41:07;;;;;;;14.00;11.25;;;;;;;26.38;60.19;100655.38;6149549;23;20093;-81
2021/07/14 07:43:33;;;;;;;15.32;11.50;;;;;;;26.45;59.93;100653.34;6150482;23;20005;-81
2021/07/14 07:45:59;;;;;;;13.60;10.15;;;;;;;26.49;60.05;100643.50;6148094;23;20005;-82
2021/07/14 07:48:25;;;;;;;12.13;10.40;;;;;;;26.47;59.83;100634.59;6146364;23;20069;-81
2021/07/14 07:50:51;;;;;;;11.00;9.90;;;;;;;26.42;59.95;100636.44;6148798;23;20009;-82
2021/07/14 07:53:19;;;;;;;10.40;9.40;;;;;;;26.48;60.46;100639.06;6147788;23;20009;-81
2021/07/14 07:55:46;;;;;;;10.05;9.05;;;;;;;26.65;59.75;100644.66;6148403;23;20088;-81
2021/07/14 07:58:12;;;;;;;14.10;10.13;;;;;;;26.69;59.81;100645.88;6149060;23;20009;-81
2021/07/14 08:00:38;;;;;;;11.70;10.10;;;;;;;26.87;59.22;100646.75;6148335;23;20325;-81
2021/07/14 08:03:03;;;;;;;10.65;9.60;;;;;;;26.81;59.36;100643.03;6148080;23;20010;-81
2021/07/14 08:05:29;;;;;;;11.98;9.90;;;;;;;27.00;59.26;100639.03;6148364;23;20037;-81
2021/07/14 08:07:55;;;;;;;13.25;10.07;;;;;;;27.15;58.64;100640.41;6151195;23;20040;-81
2021/07/14 08:10:20;;;;;;;11.63;10.27;;;;;;;27.27;58.36;100642.03;6149278;23;20696;-81
2021/07/14 08:12:46;;;;;;;10.23;9.20;;;;;;;27.38;58.00;100640.28;6149754;23;20006;-81
2021/07/14 08:15:11;;;;;;;13.00;9.55;;;;;;;27.39;57.48;100647.47;6146071;23;20063;-81
2021/07/14 08:17:38;;;;;;;13.60;10.50;;;;;;;27.55;56.82;100639.44;6146301;23;20014;-81
2021/07/14 08:20:06;;;;;;;11.88;9.18;;;;;;;27.61;56.02;100639.31;6149032;23;20013;-81
2021/07/14 08:22:32;;;;;;;10.50;8.93;;;;;;;27.76;55.29;100627.63;6151316;23;20116;-81
2021/07/14 08:24:57;;;;;;;20.23;9.38;;;;;;;27.74;54.73;100640.88;6151236;23;20717;-82
2021/07/14 08:27:24;;;;;;;12.57;9.52;;;;;;;27.75;55.05;100634.25;6151056;23;20427;-81
2021/07/14 08:29:51;;;;;;;9.57;8.63;;;;;;;27.79;54.65;100632.69;6150230;23;20691;-81
2021/07/14 08:32:16;;;;;;;16.77;8.48;;;;;;;27.95;54.46;100625.50;6150339;23;20005;-82
2021/07/14 08:34:41;;;;;;;9.30;8.32;;;;;;;27.98;54.12;100630.50;6150243;23;20044;-82
2021/07/14 08:37:07;;;;;;;11.63;8.20;;;;;;;28.06;53.98;100623.69;6149709;23;20059;-81
2021/07/14 08:39:33;;;;;;;9.65;8.35;;;;;;;28.14;54.13;100626.03;6150640;23;20006;-82
2021/07/14 08:42:02;;;;;;;9.23;8.40;;;;;;;28.06;53.72;100629.22;6152019;23;20412;-81
2021/07/14 08:44:27;;;;;;;9.18;8.13;;;;;;;28.06;53.60;100626.47;6149674;23;20009;-81
2021/07/14 08:46:53;;;;;;;8.77;7.95;;;;;;;28.04;52.74;100631.38;6150614;23;20010;-81
2021/07/14 08:49:19;;;;;;;11.63;8.30;;;;;;;28.04;53.87;100626.72;6148521;23;20224;-81
2021/07/14 08:51:45;;;;;;;9.07;8.15;;;;;;;28.12;53.50;100620.75;6148385;23;20033;-81
2021/07/14 08:54:11;;;;;;;9.13;8.07;;;;;;;28.21;53.05;100623.91;6151606;23;20016;-82
2021/07/14 08:56:37;;;;;;;9.48;7.88;;;;;;;28.30;51.71;100633.44;6152059;23;20643;-82
2021/07/14 08:59:02;;;;;;;8.50;7.72;;;;;;;28.36;51.83;100637.94;6151457;23;20005;-82
2021/07/14 09:01:28;;;;;;;7.97;7.22;;;;;;;28.38;50.97;100633.00;6151650;23;20426;-82
2021/07/14 09:03:53;;;;;;;10.40;6.88;;;;;;;28.48;50.94;100632.31;6154116;23;20016;-82
2021/07/14 09:06:18;;;;;;;8.10;7.30;;;;;;;28.59;50.90;100634.13;6152331;23;20021;-82
2021/07/14 09:08:44;;;;;;;8.85;7.63;;;;;;;28.74;50.74;100638.16;6153153;23;20032;-82
2021/07/14 09:11:10;;;;;;;9.80;8.85;;;;;;;28.75;49.66;100626.84;6152413;23;20438;-82
2021/07/14 09:13:38;;;;;;;8.40;7.28;;;;;;;28.66;50.32;100625.63;6148825;23;20024;-82
2021/07/14 09:16:05;;;;;;;9.63;8.00;;;;;;;28.53;50.99;100620.47;6153230;23;20690;-82
2021/07/14 09:18:33;;;;;;;8.75;7.63;;;;;;;28.44;51.16;100627.53;6151881;23;20078;-82
2021/07/14 09:20:59;;;;;;;8.75;7.85;;;;;;;28.24;52.03;100626.16;6153247;23;20029;-82
2021/07/14 09:23:30;;;;;;;7.85;7.03;;;;;;;28.18;52.30;100618.88;6152576;23;20013;-82
2021/07/14 09:26:03;;;;;;;;;;;;;;;28.11;52.35;100626.53;6153653;23;20044;-82
2021/07/14 09:28:34;;;;;;;8.23;7.30;;;;;;;28.06;53.03;100620.94;6152679;23;20406;-81
2021/07/14 09:31:06;;;;;;;12.63;7.63;;;;;;;28.05;53.45;100622.03;6154270;23;20320;-82
2021/07/14 09:33:32;;;;;;;8.20;7.50;;;;;;;28.08;52.83;100625.13;6154253;23;20020;-81
2021/07/14 09:35:59;;;;;;;8.88;7.25;;;;;;;28.18;52.90;100616.94;6156232;23;20009;-82
2021/07/14 09:38:32;;;;;;;10.32;7.63;;;;;;;28.36;52.38;100612.22;6153561;23;20630;-82
2021/07/14 09:41:14;;;;;;;9.00;7.32;;;;;;;28.67;52.20;100612.63;6155488;23;20013;-82
2021/07/14 09:43:41;;;;;;;11.55;7.65;;;;;;;28.98;52.15;100619.31;6153908;23;20021;-81
2021/07/14 09:46:12;;;;;;;10.57;8.18;;;;;;;29.11;51.25;100605.09;6153627;23;20449;-81
2021/07/14 09:48:45;;;;;;;10.95;8.27;;;;;;;29.09;51.10;100608.13;6151624;23;20005;-82
2021/07/14 09:51:13;;;;;;;11.50;8.07;;;;;;;29.01;51.26;100611.34;6150937;23;20013;-81
2021/07/14 09:53:42;;;;;;;12.40;8.25;;;;;;;28.96;51.28;100624.31;6150032;23;20084;-82
2021/07/14 09:56:15;;;;;;;9.43;7.03;;;;;;;28.92;51.40;100621.19;6154043;23;20005;-82
2021/07/14 09:58:41;;;;;;;7.65;6.95;;;;;;;28.92;50.48;100609.28;6153007;23;20009;-82
2021/07/14 10:01:11;;;;;;;10.00;7.82;;;;;;;28.77;51.16;100608.03;6150198;23;20009;-82
2021/07/14 10:03:46;;;;;;;8.88;7.95;;;;;;;28.64;50.88;100602.91;6152290;23;20053;-81
2021/07/14 10:06:13;;;;;;;8.80;7.45;;;;;;;28.57;52.83;100607.81;6149271;23;20029;-81
2021/07/14 10:08:40;;;;;;;12.85;7.47;;;;;;;28.62;51.52;100605.94;6152127;23;20012;-81
2021/07/14 10:11:10;;;;;;;8.80;8.00;;;;;;;28.54;51.71;100603.63;6148857;23;20009;-82
2021/07/14 10:13:36;;;;;;;7.95;7.15;;;;;;;28.56;51.43;100600.56;6151951;23;20006;-82
2021/07/14 10:16:04;;;;;;;9.25;7.40;;;;;;;28.46;51.86;100600.47;6150353;23;20018;-81
2021/07/14 10:18:31;;;;;;;12.15;7.50;;;;;;;28.44;52.17;100610.94;6149011;23;20005;-82
2021/07/14 10:20:56;;;;;;;8.02;7.03;;;;;;;28.42;52.42;100607.63;6151678;23;20107;-82
2021/07/14 10:23:23;;;;;;;7.95;7.00;;;;;;;28.23;52.17;100607.91;6151038;23;20430;-81
2021/07/14 10:25:49;;;;;;;8.18;7.38;;;;;;;28.31;52.46;100618.50;6151177;23;20009;-81
2021/07/14 10:28:20;;;;;;;10.27;8.00;;;;;;;28.37;52.71;100617.47;6149673;23;20010;-81
2021/07/14 10:30:50;;;;;;;8.80;6.95;;;;;;;28.29;52.19;100626.25;6151420;23;20049;-81
2021/07/14 10:33:17;;;;;;;7.57;6.33;;;;;;;28.24;52.98;100619.78;6150673;23;20009;-81
2021/07/14 10:35:45;;;;;;;11.25;7.55;;;;;;;28.25;53.29;100622.28;6150648;23;20084;-82
2021/07/14 10:38:22;;;;;;;9.57;6.00;;;;;;;28.38;53.48;100626.63;6150585;23;20009;-82
2021/07/14 10:40:51;;;;;;;8.73;6.93;;;;;;;28.17;53.27;100622.75;6150491;23;20059;-81
2021/07/14 10:43:19;;;;;;;7.75;6.95;;;;;;;28.23;52.96;100632.78;6151804;23;20063;-81
2021/07/14 10:45:49;;;;;;;7.85;7.10;;;;;;;28.29;52.63;100629.00;6150998;23;20088;-81
2021/07/14 10:48:17;;;;;;;12.68;6.70;;;;;;;28.27;52.52;100630.34;6150752;23;20032;-81
2021/07/14 10:50:43;;;;;;;8.32;6.72;;;;;;;28.34;52.27;100626.28;6148071;23;20493;-81
2021/07/14 10:53:12;;;;;;;9.95;6.78;;;;;;;28.37;53.02;100628.53;6147519;23;20092;-81
2021/07/14 10:55:38;;;;;;;8.20;6.10;;;;;;;28.36;53.60;100632.41;6149952;23;20012;-81
2021/07/14 10:58:04;;;;;;;7.75;7.00;;;;;;;28.37;52.61;100627.72;6150578;23;20015;-81
2021/07/14 11:00:39;;;;;;;13.70;6.50;;;;;;;28.44;52.34;100633.06;6146883;23;20105;-82
2021/07/14 11:03:05;;;;;;;7.25;6.05;;;;;;;28.47;51.64;100629.78;6149183;23;20005;-81
2021/07/14 11:05:45;;;;;;;6.88;6.18;;;;;;;28.55;51.45;100640.41;6148730;23;20021;-81
2021/07/14 11:08:10;;;;;;;8.20;5.85;;;;;;;28.57;50.18;100632.72;6148878;23;20096;-81
2021/07/14 11:10:38;;;;;;;7.25;6.60;;;;;;;28.57;50.02;100630.78;6147356;23;20056;-81
2021/07/14 11:13:30;;;;;;;7.03;6.20;;;;;;;28.62;50.33;100636.38;6150459;23;20093;-81
2021/07/14 11:15:57;;;;;;;8.25;6.47;;;;;;;28.60;50.23;100641.31;6150397;23;20083;-81
2021/07/14 11:18:35;;;;;;;10.25;6.38;;;;;;;28.62;50.57;100635.50;6148973;23;20009;-81
2021/07/14 11:21:01;;;;;;;9.40;6.47;;;;;;;28.61;49.28;100642.16;6149726;23;20009;-82
2021/07/14 11:23:28;;;;;;;7.28;5.80;;;;;;;28.72;50.56;100641.19;6149076;23;20331;-82
2021/07/14 11:25:59;;;;;;;9.50;6.22;;;;;;;28.77;50.54;100637.63;6149219;23;20699;-81
2021/07/14 11:28:26;;;;;;;7.05;6.05;;;;;;;28.84;50.53;100636.34;6149946;23;20021;-81